aviador You're here:

KASH Decoded Metar

NASHUA/BOIRE FLD in NH, USA
Report Time2018-05-23 05:56:00
UTC Time2018-05-23 06:50:50
Flight Rules mvfr MVFR
WindCalm
Visibility9999 m
Phenomena:N/A
Clouds:Overcast 015 Hf
Expected CloudBase > 400 ft AGL from Temp-Dew spread
Ceiling1,500 ft
Temp13°C (ISA -2)
Dew Point12°C (94% RH)
QNH1012 hPa
Density Alt233 ft
Elevation200 ft
Report Wrong Elevation
Raw Report
KASH 230556Z AUTO 00000KT 10SM OVC015 13/12 A2989 RMK AO2 SLP132
T01280117 10144 20128 58020=

Extra information for KASH:More info

Metar Taf Metar & Taf Last 4 Metars F.Rules Stats Wind Profile Meteogram Temp Stats Airport Information Weather charts Add Link Nearby VenuesMetar ALERT Operation Metar Decoded Social comments

AIRNAV info for KASH